Hlavní strana
METAR-TAF:

METAR-TAF

Letiště :

Tromsø, Norsko

zeměpisná šířka: 69-41N, zeměpisná délka: 018-55E, výška: 1 m

Aktuální stav počasí

Zpráva byla vytvořena před 36 minutami, v 05:20 UTC
Jihojihozápadní vítr 7 kt
Teplota 8°C
Vlhkost vzduchu 81%
Tlak 1011 hPa
Viditelnost 10 km a více
Zataženo ve výšce 4600 ft
slabý déšť

METAR: ENTC 160520Z 21007KT 9999 -RA OVC046 08/05 Q1011 REDZ RMK WIND 2600FT 18032KT

Čas: 06:56 (05:56 UTC)

Předpověď počasí

Předpověď platná od 16 v 00 UTC do 16 v 24 UTC
Jihozápadní vítr 18 kt
Viditelnost 10 km a více
Skoro jasno ve výšce 1500 ft
Oblačno až skoro zataženo ve výšce 3000 ft
slabý déšť
Změna
od 16 v 10 UTC do 16 v 12 UTC
Jihojihozápadní vítr 28 kt
Dočasný
od 16 v 09 UTC do 16 v 18 UTC
Jihozápadní vítr 25 kt s nárazy do 40 kt

TAF: ENTC 1600/1624 22018KT 9999 -RA FEW015 BKN030 BECMG 1610/1612 21028KT TEMPO 1609/1618 23025G40KT

Stav a předpovědi počasí z více než 4 000 letišť (zprávy METAR a TAF).

Červené a žluté tečky na mapě představují dostupné meteorologické stanice.

Když kurzor umístíte na tečku, zobrazí se název stanice.

Pak kliknutím zobrazíte stav a předpověď počasí.

Chcete-li změnit mapu, kliknutím na zelené tlačítko se znaménkem +mapu přiblížíte, kliknutím na zelené tlačítko se znaménkem – mapu oddálíte a kliknutím na zelené šipky přejdete na sousední mapy.


METAR-TAF: